Datum - Zeit
Temperatur 2mTemperatur 5cmTaupunktFeuchteSolar Wind aus Richtung WindböenLuftdruck (QFF)RegenRegenstärkeTrend
27.02.2021 - 00.00Uhr7.0 °C6.7 °C6 °C91.4 %0.0 W/m²7.9 km/hNorden16.2 km/h1032.2 hPa0.0 mm0.0 mm/hsonnig
27.02.2021 - 00.05Uhr6.8 °C6.7 °C6 °C92.0 %0.0 W/m²6.9 km/hNorden17.6 km/h1032.3 hPa0.2 mm1.4 mm/hsonnig
27.02.2021 - 00.10Uhr6.7 °C6.1 °C6 °C93.0 %0.0 W/m²7.6 km/hNorden16.2 km/h1032.3 hPa0.2 mm2.0 mm/hsonnig
27.02.2021 - 00.15Uhr6.5 °C6.1 °C5 °C93.2 %0.0 W/m²8.7 km/hNorden16.2 km/h1032.4 hPa0.2 mm4.8 mm/hsonnig
27.02.2021 - 00.20Uhr6.3 °C6.1 °C5 °C94.0 %0.0 W/m²10.0 km/hNorden20.9 km/h1032.4 hPa0.4 mm3.0 mm/hsonnig
27.02.2021 - 00.25Uhr6.1 °C6.1 °C5 °C94.0 %0.0 W/m²8.9 km/hNorden16.2 km/h1032.4 hPa0.0 mm3.0 mm/hsonnig
27.02.2021 - 00.30Uhr5.9 °C6.1 °C5 °C94.0 %0.0 W/m²8.0 km/hNord-NO13.0 km/h1032.4 hPa0.2 mm1.8 mm/hsonnig
27.02.2021 - 00.35Uhr5.8 °C6.1 °C5 °C94.9 %0.0 W/m²7.6 km/hNorden16.2 km/h1032.4 hPa0.0 mm1.2 mm/hsonnig
27.02.2021 - 00.40Uhr5.7 °C6.1 °C5 °C95.0 %0.0 W/m²5.3 km/hNord-NO13.0 km/h1032.3 hPa0.0 mm1.2 mm/hsonnig
27.02.2021 - 00.45Uhr5.7 °C5.6 °C5 °C95.0 %0.0 W/m²5.1 km/hNord-NO11.2 km/h1032.4 hPa0.0 mm1.0 mm/hsonnig
27.02.2021 - 00.50Uhr5.6 °C5.6 °C5 °C95.0 %0.0 W/m²5.4 km/hNord-NO13.0 km/h1032.4 hPa0.0 mm0.0 mm/hsonnig
27.02.2021 - 00.55Uhr5.6 °C5.6 °C5 °C95.0 %0.0 W/m²3.9 km/hNord-NO9.7 km/h1032.4 hPa0.0 mm0.0 mm/hsonnig
27.02.2021 - 01.00Uhr5.5 °C5.6 °C5 °C95.0 %0.0 W/m²2.1 km/hNord-NO9.7 km/h1032.5 hPa0.0 mm0.0 mm/hsonnig
27.02.2021 - 01.05Uhr5.4 °C5.6 °C5 °C95.0 %0.0 W/m²3.7 km/hNord-NO13.0 km/h1032.5 hPa0.0 mm0.0 mm/hsonnig
27.02.2021 - 01.10Uhr5.4 °C5.6 °C5 °C95.0 %0.0 W/m²4.2 km/hNord-NO13.0 km/h1032.5 hPa0.0 mm0.0 mm/hwechselhaft
27.02.2021 - 01.15Uhr5.3 °C5.6 °C5 °C94.7 %0.0 W/m²5.0 km/hNord-NO11.2 km/h1032.5 hPa0.0 mm0.0 mm/hwechselhaft
27.02.2021 - 01.20Uhr5.3 °C5.6 °C4 °C94.0 %0.0 W/m²3.1 km/hNorden14.4 km/h1032.5 hPa0.0 mm0.0 mm/hwechselhaft
27.02.2021 - 01.25Uhr5.2 °C5.6 °C4 °C94.0 %0.0 W/m²1.4 km/hNord-NO6.5 km/h1032.5 hPa0.0 mm0.0 mm/hwechselhaft
27.02.2021 - 01.30Uhr5.2 °C5.6 °C4 °C94.0 %0.0 W/m²0.9 km/hNorden6.5 km/h1032.5 hPa0.0 mm0.0 mm/hwechselhaft
27.02.2021 - 01.35Uhr5.2 °C5.6 °C4 °C94.0 %0.0 W/m²0.0 km/hNord-NO0.0 km/h1032.5 hPa0.0 mm0.0 mm/hwechselhaft
27.02.2021 - 01.40Uhr5.2 °C5.0 °C4 °C94.6 %0.0 W/m²0.0 km/hNord-NO0.0 km/h1032.5 hPa0.0 mm0.0 mm/hwechselhaft
27.02.2021 - 01.45Uhr5.1 °C5.6 °C4 °C95.0 %0.0 W/m²0.0 km/hNord-NO0.0 km/h1032.5 hPa0.0 mm0.0 mm/hwechselhaft
27.02.2021 - 01.50Uhr5.1 °C5.6 °C4 °C95.0 %0.0 W/m²0.0 km/hNord-NO0.0 km/h1032.6 hPa0.0 mm0.0 mm/hwechselhaft
27.02.2021 - 01.55Uhr5.1 °C5.6 °C4 °C95.0 %0.0 W/m²0.0 km/hNord-NO0.0 km/h1032.6 hPa0.0 mm0.0 mm/hwechselhaft
27.02.2021 - 02.00Uhr5.1 °C5.6 °C4 °C95.4 %0.0 W/m²0.0 km/hNord-NO0.0 km/h1032.6 hPa0.0 mm0.0 mm/hwechselhaft
27.02.2021 - 02.05Uhr5.1 °C5.6 °C4 °C96.0 %0.0 W/m²0.0 km/hNord-NO0.0 km/h1032.6 hPa0.0 mm0.0 mm/hwechselhaft
27.02.2021 - 02.10Uhr5.1 °C5.6 °C4 °C96.0 %0.0 W/m²0.0 km/hNord-NO1.4 km/h1032.6 hPa0.0 mm0.0 mm/hwechselhaft
27.02.2021 - 02.15Uhr5.1 °C5.6 °C4 °C96.0 %0.0 W/m²0.0 km/hNord-NO0.0 km/h1032.7 hPa0.0 mm0.0 mm/hwechselhaft
27.02.2021 - 02.20Uhr5.1 °C5.0 °C4 °C95.8 %0.0 W/m²1.4 km/hNord-NO6.5 km/h1032.7 hPa0.0 mm0.0 mm/hwechselhaft
27.02.2021 - 02.25Uhr5.0 °C5.0 °C4 °C95.0 %0.0 W/m²6.3 km/hNorden19.4 km/h1032.7 hPa0.2 mm0.0 mm/hwechselhaft
27.02.2021 - 02.30Uhr4.8 °C4.4 °C4 °C93.9 %0.0 W/m²6.8 km/hNord-NO14.4 km/h1032.7 hPa0.0 mm0.0 mm/hwechselhaft
27.02.2021 - 02.35Uhr4.7 °C4.4 °C4 °C93.0 %0.0 W/m²5.5 km/hNord-NO17.6 km/h1032.8 hPa0.0 mm0.0 mm/hwechselhaft
27.02.2021 - 02.40Uhr4.5 °C4.4 °C4 °C93.0 %0.0 W/m²5.3 km/hNord-NO11.2 km/h1032.7 hPa0.0 mm0.0 mm/hwechselhaft
27.02.2021 - 02.45Uhr4.4 °C4.4 °C3 °C93.0 %0.0 W/m²6.2 km/hNorden13.0 km/h1032.8 hPa0.0 mm0.0 mm/hwechselhaft
27.02.2021 - 02.50Uhr4.3 °C4.4 °C3 °C93.0 %0.0 W/m²4.8 km/hNord-NO11.2 km/h1032.7 hPa0.0 mm0.0 mm/hwechselhaft
27.02.2021 - 02.55Uhr4.3 °C4.4 °C3 °C93.0 %0.0 W/m²1.5 km/hNord-NO9.7 km/h1032.7 hPa0.0 mm0.0 mm/hwechselhaft
27.02.2021 - 03.00Uhr4.2 °C4.4 °C3 °C93.0 %0.0 W/m²1.4 km/hNorden6.5 km/h1032.7 hPa0.0 mm0.0 mm/hwechselhaft
27.02.2021 - 03.05Uhr4.2 °C4.4 °C3 °C93.8 %0.0 W/m²1.8 km/hNorden6.5 km/h1032.7 hPa0.0 mm0.0 mm/hwechselhaft
27.02.2021 - 03.10Uhr4.2 °C4.4 °C3 °C93.9 %0.0 W/m²4.4 km/hNorden13.0 km/h1032.7 hPa0.0 mm0.0 mm/hwechselhaft
27.02.2021 - 03.15Uhr4.1 °C3.9 °C3 °C93.0 %0.0 W/m²4.1 km/hNorden16.2 km/h1032.7 hPa0.0 mm0.0 mm/hwechselhaft
27.02.2021 - 03.20Uhr4.1 °C3.9 °C3 °C92.2 %0.0 W/m²9.3 km/hNord-NO20.9 km/h1032.6 hPa0.0 mm0.0 mm/hwechselhaft
27.02.2021 - 03.25Uhr4.1 °C3.9 °C3 °C91.3 %0.0 W/m²6.0 km/hNord-NO14.4 km/h1032.6 hPa0.0 mm0.0 mm/hwechselhaft
27.02.2021 - 03.30Uhr4.1 °C3.9 °C3 °C91.2 %0.0 W/m²4.8 km/hNord-NO13.0 km/h1032.6 hPa0.0 mm0.0 mm/hwechselhaft
27.02.2021 - 03.35Uhr4.1 °C3.9 °C3 °C91.0 %0.0 W/m²4.7 km/hNord-NO16.2 km/h1032.7 hPa0.0 mm0.0 mm/hwechselhaft
27.02.2021 - 03.40Uhr4.1 °C3.9 °C3 °C91.0 %0.0 W/m²6.5 km/hNord-NO16.2 km/h1032.6 hPa0.0 mm0.0 mm/hwechselhaft
27.02.2021 - 03.45Uhr4.0 °C3.9 °C3 °C90.9 %0.0 W/m²7.0 km/hNord-NO13.0 km/h1032.6 hPa0.0 mm0.0 mm/hwechselhaft
27.02.2021 - 03.50Uhr4.0 °C3.9 °C3 °C90.7 %0.0 W/m²6.3 km/hNord-NO14.4 km/h1032.6 hPa0.0 mm0.0 mm/hwechselhaft
27.02.2021 - 03.55Uhr4.0 °C3.9 °C3 °C90.8 %0.0 W/m²8.1 km/hNord-NO22.7 km/h1032.6 hPa0.0 mm0.0 mm/hwechselhaft
27.02.2021 - 04.00Uhr4.0 °C3.9 °C3 °C90.0 %0.0 W/m²4.7 km/hNord-NO13.0 km/h1032.6 hPa0.0 mm0.0 mm/hwechselhaft
27.02.2021 - 04.05Uhr4.0 °C3.9 °C3 °C90.8 %0.0 W/m²6.2 km/hNord-NO17.6 km/h1032.7 hPa0.0 mm0.0 mm/hwechselhaft
27.02.2021 - 04.10Uhr4.0 °C3.9 °C3 °C90.3 %0.0 W/m²5.4 km/hNord-NO17.6 km/h1032.7 hPa0.0 mm0.0 mm/hwechselhaft
27.02.2021 - 04.15Uhr4.0 °C3.9 °C2 °C90.0 %0.0 W/m²7.3 km/hNord-NO17.6 km/h1032.7 hPa0.0 mm0.0 mm/hwechselhaft
27.02.2021 - 04.20Uhr4.0 °C3.9 °C2 °C90.0 %0.0 W/m²5.2 km/hNord-NO14.4 km/h1032.7 hPa0.0 mm0.0 mm/hwechselhaft
27.02.2021 - 04.25Uhr4.0 °C3.9 °C2 °C90.0 %0.0 W/m²3.5 km/hNord-NO11.2 km/h1032.8 hPa0.0 mm0.0 mm/hwechselhaft
27.02.2021 - 04.30Uhr3.9 °C3.9 °C2 °C90.2 %0.0 W/m²3.1 km/hNord-NO11.2 km/h1032.7 hPa0.0 mm0.0 mm/hwechselhaft
27.02.2021 - 04.35Uhr3.9 °C3.9 °C3 °C90.8 %0.0 W/m²4.2 km/hNord-NO13.0 km/h1032.7 hPa0.0 mm0.0 mm/hwechselhaft
27.02.2021 - 04.40Uhr3.9 °C3.9 °C2 °C90.5 %0.0 W/m²2.2 km/hNord-NO7.9 km/h1032.7 hPa0.0 mm0.0 mm/hwechselhaft
27.02.2021 - 04.45Uhr3.9 °C3.9 °C3 °C91.0 %0.0 W/m²4.3 km/hNord-NO11.2 km/h1032.7 hPa0.0 mm0.0 mm/hwechselhaft
27.02.2021 - 04.50Uhr3.9 °C3.9 °C3 °C91.0 %0.0 W/m²5.1 km/hNord-NO14.4 km/h1032.7 hPa0.0 mm0.0 mm/hwechselhaft
27.02.2021 - 04.55Uhr3.9 °C3.9 °C3 °C91.0 %0.0 W/m²5.6 km/hNord-NO14.4 km/h1032.7 hPa0.0 mm0.0 mm/hwechselhaft
27.02.2021 - 05.00Uhr3.9 °C3.9 °C3 °C90.7 %0.0 W/m²4.3 km/hNord-NO11.2 km/h1032.7 hPa0.0 mm0.0 mm/hwechselhaft
27.02.2021 - 05.05Uhr3.9 °C3.9 °C3 °C91.0 %0.0 W/m²2.5 km/hNord-NO7.9 km/h1032.7 hPa0.0 mm0.0 mm/hwechselhaft
27.02.2021 - 05.10Uhr3.9 °C3.9 °C3 °C91.0 %0.0 W/m²4.0 km/hNord-NO11.2 km/h1032.7 hPa0.0 mm0.0 mm/hwechselhaft
27.02.2021 - 05.15Uhr3.8 °C3.9 °C3 °C91.0 %0.0 W/m²4.1 km/hNord-NO11.2 km/h1032.7 hPa0.0 mm0.0 mm/hwechselhaft
27.02.2021 - 05.20Uhr3.8 °C3.9 °C2 °C91.0 %0.0 W/m²6.1 km/hNord-NO14.4 km/h1032.7 hPa0.0 mm0.0 mm/hwechselhaft
27.02.2021 - 05.25Uhr3.8 °C3.9 °C2 °C90.8 %0.0 W/m²5.1 km/hNord-NO13.0 km/h1032.7 hPa0.0 mm0.0 mm/hwechselhaft
27.02.2021 - 05.30Uhr3.8 °C3.9 °C2 °C90.5 %0.0 W/m²6.5 km/hNord-NO22.7 km/h1032.8 hPa0.0 mm0.0 mm/hwechselhaft
27.02.2021 - 05.35Uhr3.8 °C3.9 °C2 °C90.0 %0.0 W/m²8.0 km/hNord-NO16.2 km/h1032.8 hPa0.0 mm0.0 mm/hwechselhaft
27.02.2021 - 05.40Uhr3.8 °C4.4 °C2 °C90.0 %0.0 W/m²7.7 km/hNord-NO16.2 km/h1032.8 hPa0.0 mm0.0 mm/hwechselhaft
27.02.2021 - 05.45Uhr3.8 °C4.4 °C2 °C90.0 %0.0 W/m²9.2 km/hNord-NO14.4 km/h1032.8 hPa0.0 mm0.0 mm/hwechselhaft
27.02.2021 - 05.50Uhr3.8 °C4.4 °C2 °C90.0 %0.0 W/m²6.7 km/hNord-NO11.2 km/h1032.9 hPa0.0 mm0.0 mm/hwechselhaft
27.02.2021 - 05.55Uhr3.8 °C4.4 °C2 °C90.0 %0.0 W/m²7.7 km/hNord-NO19.4 km/h1032.9 hPa0.0 mm0.0 mm/hwechselhaft
27.02.2021 - 06.00Uhr3.7 °C4.4 °C2 °C90.0 %0.0 W/m²6.0 km/hNord-NO14.4 km/h1032.8 hPa0.0 mm0.0 mm/hwechselhaft
27.02.2021 - 06.05Uhr3.7 °C4.4 °C2 °C90.3 %0.0 W/m²7.5 km/hNord-NO19.4 km/h1032.8 hPa0.0 mm0.0 mm/hwechselhaft
27.02.2021 - 06.10Uhr3.7 °C4.4 °C2 °C90.0 %0.0 W/m²7.4 km/hNord-NO16.2 km/h1032.8 hPa0.0 mm0.0 mm/hwechselhaft
27.02.2021 - 06.15Uhr3.7 °C4.4 °C2 °C90.0 %0.0 W/m²7.8 km/hNord-NO16.2 km/h1032.8 hPa0.0 mm0.0 mm/hwechselhaft
27.02.2021 - 06.20Uhr3.7 °C4.4 °C2 °C90.0 %0.0 W/m²9.8 km/hNord-NO17.6 km/h1032.9 hPa0.0 mm0.0 mm/hwechselhaft
27.02.2021 - 06.25Uhr3.7 °C4.4 °C2 °C90.0 %0.0 W/m²8.6 km/hNord-NO16.2 km/h1032.8 hPa0.0 mm0.0 mm/hwechselhaft
27.02.2021 - 06.30Uhr3.7 °C4.4 °C2 °C90.0 %0.0 W/m²9.5 km/hNord-NO19.4 km/h1032.8 hPa0.0 mm0.0 mm/hwechselhaft
27.02.2021 - 06.35Uhr3.6 °C4.4 °C2 °C90.0 %0.0 W/m²8.6 km/hNord-NO20.9 km/h1032.8 hPa0.0 mm0.0 mm/hwechselhaft
27.02.2021 - 06.40Uhr3.6 °C4.4 °C2 °C90.0 %0.0 W/m²9.6 km/hNord-NO17.6 km/h1032.8 hPa0.0 mm0.0 mm/hwechselhaft
27.02.2021 - 06.45Uhr3.6 °C4.4 °C2 °C90.0 %0.0 W/m²11.6 km/hNord-NO22.7 km/h1032.8 hPa0.0 mm0.0 mm/hwechselhaft
27.02.2021 - 06.50Uhr3.6 °C4.4 °C2 °C90.0 %0.0 W/m²7.9 km/hNord-NO16.2 km/h1032.9 hPa0.0 mm0.0 mm/hwechselhaft
27.02.2021 - 06.55Uhr3.6 °C4.4 °C2 °C90.0 %0.0 W/m²9.1 km/hNord-NO19.4 km/h1033.0 hPa0.0 mm0.0 mm/hwechselhaft
27.02.2021 - 07.00Uhr3.6 °C4.4 °C2 °C90.0 %0.0 W/m²6.2 km/hNord-NO14.4 km/h1033.0 hPa0.0 mm0.0 mm/hwechselhaft
27.02.2021 - 07.05Uhr3.6 °C4.4 °C2 °C90.0 %0.0 W/m²9.2 km/hNord-NO19.4 km/h1033.0 hPa0.0 mm0.0 mm/hwechselhaft
27.02.2021 - 07.10Uhr3.6 °C4.4 °C2 °C90.0 %0.0 W/m²9.0 km/hNord-NO19.4 km/h1033.1 hPa0.0 mm0.0 mm/hwechselhaft
27.02.2021 - 07.15Uhr3.6 °C4.4 °C2 °C90.0 %0.0 W/m²6.6 km/hNord-NO17.6 km/h1033.2 hPa0.0 mm0.0 mm/hwechselhaft
27.02.2021 - 07.20Uhr3.6 °C4.4 °C2 °C90.0 %0.0 W/m²8.4 km/hNord-NO16.2 km/h1033.2 hPa0.0 mm0.0 mm/hwechselhaft
27.02.2021 - 07.25Uhr3.5 °C4.4 °C2 °C90.0 %0.0 W/m²8.9 km/hNord-NO20.9 km/h1033.2 hPa0.0 mm0.0 mm/hwechselhaft
27.02.2021 - 07.30Uhr3.5 °C4.4 °C2 °C90.0 %0.0 W/m²8.0 km/hNord-NO17.6 km/h1033.3 hPa0.0 mm0.0 mm/hwechselhaft
27.02.2021 - 07.35Uhr3.5 °C4.4 °C2 °C90.0 %5.0 W/m²7.9 km/hNord-NO16.2 km/h1033.3 hPa0.0 mm0.0 mm/hwechselhaft
27.02.2021 - 07.40Uhr3.5 °C4.4 °C2 °C90.0 %5.0 W/m²7.4 km/hNord-NO19.4 km/h1033.4 hPa0.0 mm0.0 mm/hwechselhaft
27.02.2021 - 07.45Uhr3.5 °C4.4 °C2 °C90.0 %7.0 W/m²8.1 km/hNord-NO17.6 km/h1033.4 hPa0.0 mm0.0 mm/hwechselhaft
27.02.2021 - 07.50Uhr3.5 °C4.4 °C2 °C90.0 %7.0 W/m²7.1 km/hNord-NO17.6 km/h1033.4 hPa0.0 mm0.0 mm/hwechselhaft
27.02.2021 - 07.55Uhr3.4 °C4.4 °C2 °C90.0 %7.0 W/m²7.6 km/hNord-NO16.2 km/h1033.5 hPa0.0 mm0.0 mm/hwechselhaft
27.02.2021 - 08.00Uhr3.4 °C4.4 °C2 °C90.0 %9.0 W/m²7.9 km/hNord-NO19.4 km/h1033.5 hPa0.0 mm0.0 mm/hwechselhaft
27.02.2021 - 08.05Uhr3.4 °C4.4 °C2 °C90.0 %19.0 W/m²9.3 km/hNord-NO16.2 km/h1033.6 hPa0.0 mm0.0 mm/hwechselhaft
27.02.2021 - 08.10Uhr3.4 °C4.4 °C2 °C90.0 %25.0 W/m²9.7 km/hNord-NO19.4 km/h1033.6 hPa0.0 mm0.0 mm/hwechselhaft
27.02.2021 - 08.15Uhr3.4 °C4.4 °C2 °C89.6 %32.0 W/m²7.5 km/hNordosten19.4 km/h1033.6 hPa0.0 mm0.0 mm/hwechselhaft
27.02.2021 - 08.20Uhr3.4 °C4.4 °C2 °C90.0 %32.0 W/m²7.2 km/hNord-NO14.4 km/h1033.6 hPa0.0 mm0.0 mm/hwechselhaft
27.02.2021 - 08.25Uhr3.4 °C4.4 °C2 °C90.0 %32.0 W/m²7.1 km/hNord-NO16.2 km/h1033.7 hPa0.0 mm0.0 mm/hwechselhaft
27.02.2021 - 08.30Uhr3.4 °C4.4 °C2 °C90.0 %30.0 W/m²6.0 km/hNord-NO14.4 km/h1033.8 hPa0.0 mm0.0 mm/hwechselhaft
27.02.2021 - 08.35Uhr3.4 °C4.4 °C2 °C90.0 %30.0 W/m²6.7 km/hNord-NO16.2 km/h1033.8 hPa0.0 mm0.0 mm/hwechselhaft
27.02.2021 - 08.40Uhr3.4 °C4.4 °C2 °C89.5 %35.0 W/m²9.3 km/hNord-NO17.6 km/h1033.8 hPa0.0 mm0.0 mm/hwechselhaft
27.02.2021 - 08.45Uhr3.4 °C4.4 °C2 °C90.0 %39.0 W/m²7.3 km/hNord-NO17.6 km/h1033.8 hPa0.0 mm0.0 mm/hwechselhaft
27.02.2021 - 08.50Uhr3.4 °C4.4 °C2 °C89.5 %40.0 W/m²9.3 km/hNord-NO17.6 km/h1033.8 hPa0.0 mm0.0 mm/hwechselhaft
27.02.2021 - 08.55Uhr3.3 °C4.4 °C2 °C89.7 %40.0 W/m²8.0 km/hNord-NO13.0 km/h1033.8 hPa0.0 mm0.0 mm/hwechselhaft
27.02.2021 - 09.00Uhr3.3 °C4.4 °C2 °C90.0 %46.0 W/m²8.9 km/hNord-NO16.2 km/h1033.8 hPa0.0 mm0.0 mm/hwechselhaft
27.02.2021 - 09.05Uhr3.3 °C4.4 °C2 °C89.0 %44.0 W/m²9.4 km/hNorden19.4 km/h1033.8 hPa0.0 mm0.0 mm/hwechselhaft
27.02.2021 - 09.10Uhr3.3 °C4.4 °C2 °C89.0 %46.0 W/m²11.0 km/hNord-NO20.9 km/h1033.8 hPa0.0 mm0.0 mm/hwechselhaft
27.02.2021 - 09.15Uhr3.3 °C4.4 °C2 °C89.0 %49.0 W/m²8.5 km/hNord-NO17.6 km/h1033.8 hPa0.0 mm0.0 mm/hwechselhaft
27.02.2021 - 09.20Uhr3.3 °C4.4 °C2 °C89.0 %53.0 W/m²9.6 km/hNord-NO19.4 km/h1033.8 hPa0.0 mm0.0 mm/hwechselhaft
27.02.2021 - 09.25Uhr3.3 °C4.4 °C2 °C89.0 %51.0 W/m²7.0 km/hNord-NO17.6 km/h1033.8 hPa0.0 mm0.0 mm/hwechselhaft
27.02.2021 - 09.30Uhr3.3 °C4.4 °C2 °C89.0 %58.0 W/m²8.6 km/hNord-NO16.2 km/h1033.9 hPa0.0 mm0.0 mm/hwechselhaft
27.02.2021 - 09.35Uhr3.3 °C5.0 °C2 °C89.2 %74.0 W/m²9.8 km/hNord-NO19.4 km/h1033.8 hPa0.0 mm0.0 mm/hwechselhaft
27.02.2021 - 09.40Uhr3.4 °C5.0 °C2 °C89.0 %77.0 W/m²9.5 km/hNord-NO17.6 km/h1033.8 hPa0.0 mm0.0 mm/hwechselhaft
27.02.2021 - 09.45Uhr3.4 °C5.0 °C2 °C89.0 %86.0 W/m²8.0 km/hNord-NO16.2 km/h1033.9 hPa0.0 mm0.0 mm/hwechselhaft
27.02.2021 - 09.50Uhr3.5 °C5.0 °C2 °C88.8 %81.0 W/m²10.9 km/hNord-NO20.9 km/h1033.9 hPa0.0 mm0.0 mm/hwechselhaft
27.02.2021 - 09.55Uhr3.5 °C5.0 °C2 °C88.0 %88.0 W/m²9.0 km/hNord-NO16.2 km/h1033.9 hPa0.0 mm0.0 mm/hwechselhaft
27.02.2021 - 10.00Uhr3.6 °C5.0 °C2 °C87.5 %93.0 W/m²12.2 km/hNord-NO24.1 km/h1033.8 hPa0.0 mm0.0 mm/hwechselhaft
27.02.2021 - 10.05Uhr3.6 °C5.0 °C2 °C87.0 %109.0 W/m²9.8 km/hNord-NO20.9 km/h1033.8 hPa0.0 mm0.0 mm/hwechselhaft
27.02.2021 - 10.10Uhr3.6 °C5.6 °C2 °C87.0 %118.0 W/m²10.4 km/hNord-NO19.4 km/h1033.8 hPa0.0 mm0.0 mm/hsonnig
27.02.2021 - 10.15Uhr3.7 °C5.6 °C2 °C86.8 %118.0 W/m²10.4 km/hNord-NO22.7 km/h1033.8 hPa0.0 mm0.0 mm/hsonnig
27.02.2021 - 10.20Uhr3.7 °C5.6 °C2 °C86.2 %113.0 W/m²12.0 km/hNord-NO25.9 km/h1033.9 hPa0.0 mm0.0 mm/hsonnig
27.02.2021 - 10.25Uhr3.7 °C5.6 °C2 °C86.0 %120.0 W/m²12.4 km/hNord-NO24.1 km/h1033.9 hPa0.0 mm0.0 mm/hsonnig
27.02.2021 - 10.30Uhr3.7 °C5.6 °C2 °C85.8 %118.0 W/m²10.9 km/hNord-NO22.7 km/h1033.9 hPa0.0 mm0.0 mm/hsonnig
27.02.2021 - 10.35Uhr3.8 °C5.6 °C2 °C85.9 %123.0 W/m²12.1 km/hNord-NO27.4 km/h1033.9 hPa0.0 mm0.0 mm/hsonnig
27.02.2021 - 10.40Uhr3.8 °C5.6 °C2 °C85.7 %120.0 W/m²8.1 km/hNord-NO25.9 km/h1033.9 hPa0.0 mm0.0 mm/hsonnig
27.02.2021 - 10.45Uhr3.8 °C5.6 °C2 °C85.7 %127.0 W/m²8.0 km/hNord-NO19.4 km/h1033.9 hPa0.0 mm0.0 mm/hsonnig
27.02.2021 - 10.50Uhr3.9 °C5.6 °C2 °C85.2 %135.0 W/m²11.2 km/hNord-NO20.9 km/h1033.9 hPa0.0 mm0.0 mm/hsonnig
27.02.2021 - 10.55Uhr3.9 °C5.6 °C2 °C85.3 %148.0 W/m²6.2 km/hNord-NO19.4 km/h1033.9 hPa0.0 mm0.0 mm/hsonnig
27.02.2021 - 11.00Uhr3.9 °C5.6 °C2 °C85.0 %148.0 W/m²10.1 km/hNord-NO22.7 km/h1034.0 hPa0.0 mm0.0 mm/hsonnig
27.02.2021 - 11.05Uhr3.9 °C5.6 °C1 °C84.0 %142.0 W/m²11.5 km/hNord-NO27.4 km/h1034.0 hPa0.0 mm0.0 mm/hsonnig
27.02.2021 - 11.10Uhr3.9 °C6.1 °C1 °C84.0 %141.0 W/m²8.2 km/hNord-NO20.9 km/h1034.1 hPa0.0 mm0.0 mm/hwechselhaft
27.02.2021 - 11.15Uhr3.9 °C5.6 °C1 °C83.3 %144.0 W/m²12.3 km/hNord-NO24.1 km/h1034.1 hPa0.0 mm0.0 mm/hwechselhaft
27.02.2021 - 11.20Uhr4.0 °C5.6 °C1 °C83.0 %146.0 W/m²10.8 km/hNord-NO24.1 km/h1034.2 hPa0.0 mm0.0 mm/hwechselhaft
27.02.2021 - 11.25Uhr4.1 °C6.1 °C2 °C84.0 %137.0 W/m²7.2 km/hNord-NO22.7 km/h1034.2 hPa0.0 mm0.0 mm/hwechselhaft
27.02.2021 - 11.30Uhr4.1 °C6.1 °C2 °C83.8 %123.0 W/m²5.2 km/hNordosten14.4 km/h1034.2 hPa0.0 mm0.0 mm/hwechselhaft
27.02.2021 - 11.35Uhr4.2 °C6.1 °C2 °C83.6 %120.0 W/m²6.6 km/hNord-NO16.2 km/h1034.2 hPa0.0 mm0.0 mm/hwechselhaft
27.02.2021 - 11.40Uhr4.2 °C5.6 °C2 °C83.0 %125.0 W/m²8.4 km/hNord-NO17.6 km/h1034.2 hPa0.0 mm0.0 mm/hwechselhaft
27.02.2021 - 11.45Uhr4.2 °C5.6 °C1 °C82.4 %134.0 W/m²10.1 km/hNord-NO22.7 km/h1034.2 hPa0.0 mm0.0 mm/hwechselhaft
27.02.2021 - 11.50Uhr4.2 °C6.1 °C2 °C83.0 %132.0 W/m²5.5 km/hNord-NO16.2 km/h1034.2 hPa0.0 mm0.0 mm/hwechselhaft
27.02.2021 - 11.55Uhr4.2 °C6.1 °C1 °C82.2 %135.0 W/m²8.1 km/hNordosten19.4 km/h1034.2 hPa0.0 mm0.0 mm/hwechselhaft
27.02.2021 - 12.00Uhr4.3 °C6.1 °C1 °C82.0 %137.0 W/m²5.9 km/hNord-NO14.4 km/h1034.3 hPa0.0 mm0.0 mm/hwechselhaft
27.02.2021 - 12.05Uhr4.3 °C6.7 °C2 °C82.0 %139.0 W/m²4.9 km/hNord-NO16.2 km/h1034.3 hPa0.0 mm0.0 mm/hwechselhaft
27.02.2021 - 12.10Uhr4.4 °C6.1 °C2 °C81.7 %134.0 W/m²8.7 km/hNord-NO24.1 km/h1034.3 hPa0.0 mm0.0 mm/hwechselhaft
27.02.2021 - 12.15Uhr4.4 °C6.1 °C1 °C81.4 %137.0 W/m²6.8 km/hNordosten19.4 km/h1034.2 hPa0.0 mm0.0 mm/hwechselhaft
27.02.2021 - 12.20Uhr4.4 °C6.1 °C2 °C81.8 %141.0 W/m²6.5 km/hNord-NO16.2 km/h1034.2 hPa0.0 mm0.0 mm/hwechselhaft
27.02.2021 - 12.25Uhr4.5 °C6.7 °C2 °C82.0 %142.0 W/m²3.2 km/hNord-NO14.4 km/h1034.2 hPa0.0 mm0.0 mm/hwechselhaft
27.02.2021 - 12.30Uhr4.6 °C6.7 °C2 °C81.3 %148.0 W/m²5.7 km/hNordosten17.6 km/h1034.2 hPa0.0 mm0.0 mm/hwechselhaft
27.02.2021 - 12.35Uhr4.6 °C6.7 °C2 °C81.0 %149.0 W/m²4.8 km/hNordosten14.4 km/h1034.2 hPa0.0 mm0.0 mm/hwechselhaft
27.02.2021 - 12.40Uhr4.6 °C6.7 °C2 °C81.4 %149.0 W/m²3.0 km/hNordosten13.0 km/h1034.1 hPa0.0 mm0.0 mm/hwechselhaft
27.02.2021 - 12.45Uhr4.7 °C7.2 °C2 °C81.4 %146.0 W/m²4.5 km/hNordosten13.0 km/h1034.1 hPa0.0 mm0.0 mm/hwechselhaft
27.02.2021 - 12.50Uhr4.7 °C6.7 °C2 °C80.8 %139.0 W/m²7.4 km/hNordosten19.4 km/h1034.0 hPa0.0 mm0.0 mm/hwechselhaft
27.02.2021 - 12.55Uhr4.7 °C2 °C81.0 %4.7 km/hNord-NO4.7 km/h